Daphne, Alabama
Current Conditions -  °F | °C
As of 5:35 PM on Saturday 22 Nov 2014 (Local Time) from KCQF Reporting Station
Overcast Overcast  
Wind Chill: 16°   Ceiling: 900
Heat Index: 16°   Visibility: 10mi
Dew Point: 14°   Wind: 8mph
Humidity: 88%   Direction: 80°E
Pressure: 30.09"   Gusts: NA
Location:  30.6°N, 87.9°W
Report Text: KCQF 222335Z AUTO 08007KT 10SM OVC009 16/14 A3009 RMK AO2
Loading
Personal Weather Stations






























Interactive Weather Map New forecast layout! Learn more

10-Day Weather Forecast

Advertisements
Track Severe Weather on mobile